Terminal Aerodrome Forecast
Issued by NWS

Home | Current Version | Previous Version | Text Only | Print | Product List | Glossary On
Versions: 1 2 3 4 5 6 7 8 9 10 11 12 13 14 15 16 17 18 19 20 21 22 23 24 25 26 27
000
FTUS41 KBOX 230543
TAFHYA
TAF
KHYA 230543Z 2306/2406 02008KT P6SM VCSH BKN012 OVC022
     FM231100 06008KT 6SM -SHRA OVC003
     FM231600 04010KT 6SM -SHRA BR OVC008
     FM231900 04013G20KT P6SM -SHRA OVC008
     FM240000 01015G28KT P6SM -SHRA OVC008
     FM240400 36018G30KT 6SM BR OVC008=

USA.gov is the U.S. government's official web portal to all federal, state and local government web resources and services.